sensor_id;sensor_type;location;lat;lon;timestamp;temperature;humidity
22645;DHT22;11489;50.834;6.752;2023-04-03T00:01:33;3.00;92.10
22645;DHT22;11489;50.834;6.752;2023-04-03T00:03:59;3.10;92.20
22645;DHT22;11489;50.834;6.752;2023-04-03T00:06:25;3.10;92.10
22645;DHT22;11489;50.834;6.752;2023-04-03T00:08:52;3.20;92.10
22645;DHT22;11489;50.834;6.752;2023-04-03T00:11:18;3.20;92.00
22645;DHT22;11489;50.834;6.752;2023-04-03T00:13:45;3.30;92.10
22645;DHT22;11489;50.834;6.752;2023-04-03T00:16:11;3.40;92.10
22645;DHT22;11489;50.834;6.752;2023-04-03T00:18:40;3.40;92.10
22645;DHT22;11489;50.834;6.752;2023-04-03T00:21:07;3.50;92.10
22645;DHT22;11489;50.834;6.752;2023-04-03T00:23:34;3.50;92.10
22645;DHT22;11489;50.834;6.752;2023-04-03T00:26:00;3.60;92.10
22645;DHT22;11489;50.834;6.752;2023-04-03T00:28:25;3.70;92.10
22645;DHT22;11489;50.834;6.752;2023-04-03T00:30:52;3.70;92.00
22645;DHT22;11489;50.834;6.752;2023-04-03T00:33:18;3.80;92.10
22645;DHT22;11489;50.834;6.752;2023-04-03T00:35:47;3.80;92.10
22645;DHT22;11489;50.834;6.752;2023-04-03T00:38:14;3.90;92.10
22645;DHT22;11489;50.834;6.752;2023-04-03T00:40:44;3.90;92.10
22645;DHT22;11489;50.834;6.752;2023-04-03T00:43:17;3.90;91.90
22645;DHT22;11489;50.834;6.752;2023-04-03T00:45:45;4.00;91.90
22645;DHT22;11489;50.834;6.752;2023-04-03T00:48:20;4.00;92.00
22645;DHT22;11489;50.834;6.752;2023-04-03T00:50:47;4.00;91.80
22645;DHT22;11489;50.834;6.752;2023-04-03T00:53:22;4.00;91.80
22645;DHT22;11489;50.834;6.752;2023-04-03T00:55:49;4.00;91.80
22645;DHT22;11489;50.834;6.752;2023-04-03T00:58:18;4.00;91.80
22645;DHT22;11489;50.834;6.752;2023-04-03T01:00:50;4.00;91.80
22645;DHT22;11489;50.834;6.752;2023-04-03T01:03:19;4.00;91.90
22645;DHT22;11489;50.834;6.752;2023-04-03T01:05:45;4.00;91.80
22645;DHT22;11489;50.834;6.752;2023-04-03T01:08:11;4.00;91.80
22645;DHT22;11489;50.834;6.752;2023-04-03T01:10:37;4.00;91.70
22645;DHT22;11489;50.834;6.752;2023-04-03T01:13:24;3.90;91.50
22645;DHT22;11489;50.834;6.752;2023-04-03T01:15:51;3.90;91.10
22645;DHT22;11489;50.834;6.752;2023-04-03T01:18:16;3.90;91.20
22645;DHT22;11489;50.834;6.752;2023-04-03T01:25:58;3.80;90.90
22645;DHT22;11489;50.834;6.752;2023-04-03T01:28:30;3.70;90.90
22645;DHT22;11489;50.834;6.752;2023-04-03T01:33:37;3.60;90.90
22645;DHT22;11489;50.834;6.752;2023-04-03T01:36:03;3.50;90.90
22645;DHT22;11489;50.834;6.752;2023-04-03T01:38:29;3.50;90.90
22645;DHT22;11489;50.834;6.752;2023-04-03T01:40:55;3.40;91.00
22645;DHT22;11489;50.834;6.752;2023-04-03T01:43:20;3.40;91.00
22645;DHT22;11489;50.834;6.752;2023-04-03T01:45:46;3.30;91.10
22645;DHT22;11489;50.834;6.752;2023-04-03T01:48:12;3.30;91.20
22645;DHT22;11489;50.834;6.752;2023-04-03T01:50:38;3.20;91.30
22645;DHT22;11489;50.834;6.752;2023-04-03T01:53:04;3.20;91.70
22645;DHT22;11489;50.834;6.752;2023-04-03T01:55:30;3.10;91.30
22645;DHT22;11489;50.834;6.752;2023-04-03T01:57:56;3.10;91.40
22645;DHT22;11489;50.834;6.752;2023-04-03T02:00:21;3.10;91.40
22645;DHT22;11489;50.834;6.752;2023-04-03T02:02:47;3.10;91.40
22645;DHT22;11489;50.834;6.752;2023-04-03T02:05:12;3.00;91.40
22645;DHT22;11489;50.834;6.752;2023-04-03T02:07:38;3.00;91.40
22645;DHT22;11489;50.834;6.752;2023-04-03T02:10:04;3.00;91.40
22645;DHT22;11489;50.834;6.752;2023-04-03T02:12:30;2.90;91.80
22645;DHT22;11489;50.834;6.752;2023-04-03T02:14:55;2.90;91.50
22645;DHT22;11489;50.834;6.752;2023-04-03T02:17:21;2.90;91.40
22645;DHT22;11489;50.834;6.752;2023-04-03T02:19:47;2.90;91.40
22645;DHT22;11489;50.834;6.752;2023-04-03T02:22:13;2.80;91.30
22645;DHT22;11489;50.834;6.752;2023-04-03T02:24:38;2.80;91.30
22645;DHT22;11489;50.834;6.752;2023-04-03T02:27:06;2.70;91.20
22645;DHT22;11489;50.834;6.752;2023-04-03T02:29:31;2.70;91.20
22645;DHT22;11489;50.834;6.752;2023-04-03T02:31:57;2.70;91.30
22645;DHT22;11489;50.834;6.752;2023-04-03T02:34:23;2.70;91.30
22645;DHT22;11489;50.834;6.752;2023-04-03T02:36:48;2.70;91.30
22645;DHT22;11489;50.834;6.752;2023-04-03T02:39:14;2.60;91.30
22645;DHT22;11489;50.834;6.752;2023-04-03T02:41:40;2.60;91.20
22645;DHT22;11489;50.834;6.752;2023-04-03T02:44:06;2.50;91.10
22645;DHT22;11489;50.834;6.752;2023-04-03T02:46:33;2.50;91.00
22645;DHT22;11489;50.834;6.752;2023-04-03T02:48:59;2.50;90.90
22645;DHT22;11489;50.834;6.752;2023-04-03T02:51:25;2.40;90.80
22645;DHT22;11489;50.834;6.752;2023-04-03T02:53:50;2.30;90.70
22645;DHT22;11489;50.834;6.752;2023-04-03T02:56:16;2.20;90.70
22645;DHT22;11489;50.834;6.752;2023-04-03T02:58:44;2.10;90.60
22645;DHT22;11489;50.834;6.752;2023-04-03T03:01:10;2.10;90.70
22645;DHT22;11489;50.834;6.752;2023-04-03T03:03:36;2.00;90.90
22645;DHT22;11489;50.834;6.752;2023-04-03T03:06:10;1.90;91.00
22645;DHT22;11489;50.834;6.752;2023-04-03T03:08:36;1.90;90.90
22645;DHT22;11489;50.834;6.752;2023-04-03T03:11:02;1.80;90.90
22645;DHT22;11489;50.834;6.752;2023-04-03T03:13:28;1.70;90.90
22645;DHT22;11489;50.834;6.752;2023-04-03T03:15:54;1.70;90.90
22645;DHT22;11489;50.834;6.752;2023-04-03T03:18:20;1.60;91.00
22645;DHT22;11489;50.834;6.752;2023-04-03T03:20:46;1.60;91.10
22645;DHT22;11489;50.834;6.752;2023-04-03T03:23:11;1.50;91.10
22645;DHT22;11489;50.834;6.752;2023-04-03T03:25:40;1.40;91.30
22645;DHT22;11489;50.834;6.752;2023-04-03T03:28:06;1.40;91.40
22645;DHT22;11489;50.834;6.752;2023-04-03T03:30:32;1.40;91.40
22645;DHT22;11489;50.834;6.752;2023-04-03T03:32:58;1.30;91.40
22645;DHT22;11489;50.834;6.752;2023-04-03T03:35:24;1.30;91.60
22645;DHT22;11489;50.834;6.752;2023-04-03T03:37:49;1.30;91.70
22645;DHT22;11489;50.834;6.752;2023-04-03T03:40:15;1.30;91.80
22645;DHT22;11489;50.834;6.752;2023-04-03T03:42:41;1.20;91.70
22645;DHT22;11489;50.834;6.752;2023-04-03T03:45:07;1.30;91.80
22645;DHT22;11489;50.834;6.752;2023-04-03T03:47:33;1.20;91.90
22645;DHT22;11489;50.834;6.752;2023-04-03T03:49:59;1.20;91.90
22645;DHT22;11489;50.834;6.752;2023-04-03T03:52:25;1.20;91.90
22645;DHT22;11489;50.834;6.752;2023-04-03T03:54:50;1.20;91.90
22645;DHT22;11489;50.834;6.752;2023-04-03T03:57:16;1.20;92.00
22645;DHT22;11489;50.834;6.752;2023-04-03T03:59:42;1.20;92.10
22645;DHT22;11489;50.834;6.752;2023-04-03T04:02:10;1.20;92.30
22645;DHT22;11489;50.834;6.752;2023-04-03T04:04:36;1.20;92.40
22645;DHT22;11489;50.834;6.752;2023-04-03T04:07:03;1.20;92.70
22645;DHT22;11489;50.834;6.752;2023-04-03T04:09:28;1.20;92.40
22645;DHT22;11489;50.834;6.752;2023-04-03T04:11:54;1.20;92.30
22645;DHT22;11489;50.834;6.752;2023-04-03T04:14:20;1.20;92.20
22645;DHT22;11489;50.834;6.752;2023-04-03T04:16:47;1.20;92.20
22645;DHT22;11489;50.834;6.752;2023-04-03T04:19:13;1.20;92.30
22645;DHT22;11489;50.834;6.752;2023-04-03T04:21:38;1.20;92.30
22645;DHT22;11489;50.834;6.752;2023-04-03T04:24:05;1.20;92.40
22645;DHT22;11489;50.834;6.752;2023-04-03T04:26:31;1.20;92.40
22645;DHT22;11489;50.834;6.752;2023-04-03T04:28:57;1.20;92.40
22645;DHT22;11489;50.834;6.752;2023-04-03T04:31:23;1.20;92.30
22645;DHT22;11489;50.834;6.752;2023-04-03T04:33:48;1.20;92.30
22645;DHT22;11489;50.834;6.752;2023-04-03T04:36:14;1.10;92.30
22645;DHT22;11489;50.834;6.752;2023-04-03T04:38:40;1.10;92.20
22645;DHT22;11489;50.834;6.752;2023-04-03T04:41:06;1.10;92.20
22645;DHT22;11489;50.834;6.752;2023-04-03T04:43:32;1.10;92.20
22645;DHT22;11489;50.834;6.752;2023-04-03T04:46:03;1.10;92.20
22645;DHT22;11489;50.834;6.752;2023-04-03T04:48:28;1.00;92.10
22645;DHT22;11489;50.834;6.752;2023-04-03T04:50:54;1.00;92.10
22645;DHT22;11489;50.834;6.752;2023-04-03T04:53:20;1.00;92.30
22645;DHT22;11489;50.834;6.752;2023-04-03T04:55:46;1.00;92.30
22645;DHT22;11489;50.834;6.752;2023-04-03T04:58:11;0.90;92.40
22645;DHT22;11489;50.834;6.752;2023-04-03T05:00:37;0.90;92.40
22645;DHT22;11489;50.834;6.752;2023-04-03T05:03:03;0.90;92.40
22645;DHT22;11489;50.834;6.752;2023-04-03T05:05:28;0.90;92.40
22645;DHT22;11489;50.834;6.752;2023-04-03T05:07:54;0.90;92.50
22645;DHT22;11489;50.834;6.752;2023-04-03T05:10:20;0.90;92.60
22645;DHT22;11489;50.834;6.752;2023-04-03T05:12:46;0.90;92.70
22645;DHT22;11489;50.834;6.752;2023-04-03T05:15:11;0.90;92.70
22645;DHT22;11489;50.834;6.752;2023-04-03T05:17:37;0.90;92.70
22645;DHT22;11489;50.834;6.752;2023-04-03T05:20:04;0.90;92.90
22645;DHT22;11489;50.834;6.752;2023-04-03T05:22:30;1.00;93.10
22645;DHT22;11489;50.834;6.752;2023-04-03T05:24:56;1.00;93.10
22645;DHT22;11489;50.834;6.752;2023-04-03T05:27:22;1.00;93.10
22645;DHT22;11489;50.834;6.752;2023-04-03T05:29:50;1.10;93.30
22645;DHT22;11489;50.834;6.752;2023-04-03T05:32:16;1.10;93.30
22645;DHT22;11489;50.834;6.752;2023-04-03T05:34:42;1.20;93.30
22645;DHT22;11489;50.834;6.752;2023-04-03T05:37:07;1.20;93.30
22645;DHT22;11489;50.834;6.752;2023-04-03T05:39:33;1.20;93.30
22645;DHT22;11489;50.834;6.752;2023-04-03T05:41:59;1.30;93.40
22645;DHT22;11489;50.834;6.752;2023-04-03T05:44:25;1.30;93.50
22645;DHT22;11489;50.834;6.752;2023-04-03T05:46:51;1.40;93.60
22645;DHT22;11489;50.834;6.752;2023-04-03T05:49:17;1.40;93.60
22645;DHT22;11489;50.834;6.752;2023-04-03T05:51:43;1.50;93.70
22645;DHT22;11489;50.834;6.752;2023-04-03T05:54:14;1.60;93.70
22645;DHT22;11489;50.834;6.752;2023-04-03T05:56:41;1.60;93.70
22645;DHT22;11489;50.834;6.752;2023-04-03T05:59:07;1.70;93.90
22645;DHT22;11489;50.834;6.752;2023-04-03T06:01:33;1.70;93.80
22645;DHT22;11489;50.834;6.752;2023-04-03T06:03:59;1.80;94.00
22645;DHT22;11489;50.834;6.752;2023-04-03T06:06:25;1.90;94.00
22645;DHT22;11489;50.834;6.752;2023-04-03T06:08:51;2.00;94.10
22645;DHT22;11489;50.834;6.752;2023-04-03T06:11:17;2.00;94.00
22645;DHT22;11489;50.834;6.752;2023-04-03T06:13:42;2.10;94.10
22645;DHT22;11489;50.834;6.752;2023-04-03T06:16:12;2.20;94.00
22645;DHT22;11489;50.834;6.752;2023-04-03T06:18:39;2.20;94.00
22645;DHT22;11489;50.834;6.752;2023-04-03T06:21:05;2.30;94.10
22645;DHT22;11489;50.834;6.752;2023-04-03T06:23:33;2.40;94.10
22645;DHT22;11489;50.834;6.752;2023-04-03T06:25:58;2.50;94.10
22645;DHT22;11489;50.834;6.752;2023-04-03T06:28:25;2.60;94.10
22645;DHT22;11489;50.834;6.752;2023-04-03T06:30:50;2.60;94.20
22645;DHT22;11489;50.834;6.752;2023-04-03T06:33:16;2.70;94.10
22645;DHT22;11489;50.834;6.752;2023-04-03T06:35:41;2.80;94.10
22645;DHT22;11489;50.834;6.752;2023-04-03T06:38:07;2.90;94.20
22645;DHT22;11489;50.834;6.752;2023-04-03T06:40:35;3.00;94.10
22645;DHT22;11489;50.834;6.752;2023-04-03T06:43:01;3.00;94.00
22645;DHT22;11489;50.834;6.752;2023-04-03T06:45:27;3.20;93.90
22645;DHT22;11489;50.834;6.752;2023-04-03T06:47:53;3.30;93.90
22645;DHT22;11489;50.834;6.752;2023-04-03T06:50:19;3.30;93.90
22645;DHT22;11489;50.834;6.752;2023-04-03T06:52:45;3.50;93.80
22645;DHT22;11489;50.834;6.752;2023-04-03T06:55:11;3.50;93.70
22645;DHT22;11489;50.834;6.752;2023-04-03T06:57:37;3.60;94.10
22645;DHT22;11489;50.834;6.752;2023-04-03T07:00:04;3.70;93.90
22645;DHT22;11489;50.834;6.752;2023-04-03T07:02:30;3.80;93.90
22645;DHT22;11489;50.834;6.752;2023-04-03T07:04:56;3.80;93.70
22645;DHT22;11489;50.834;6.752;2023-04-03T07:07:22;3.90;93.60
22645;DHT22;11489;50.834;6.752;2023-04-03T07:09:47;4.00;93.40
22645;DHT22;11489;50.834;6.752;2023-04-03T07:12:13;4.00;93.70
22645;DHT22;11489;50.834;6.752;2023-04-03T07:14:39;4.10;93.80
22645;DHT22;11489;50.834;6.752;2023-04-03T07:17:05;4.20;93.60
22645;DHT22;11489;50.834;6.752;2023-04-03T07:19:30;4.20;93.80
22645;DHT22;11489;50.834;6.752;2023-04-03T07:21:56;4.30;93.40
22645;DHT22;11489;50.834;6.752;2023-04-03T07:24:22;4.40;93.40
22645;DHT22;11489;50.834;6.752;2023-04-03T07:26:52;4.40;93.30
22645;DHT22;11489;50.834;6.752;2023-04-03T07:29:18;4.50;93.60
22645;DHT22;11489;50.834;6.752;2023-04-03T07:31:44;4.60;93.60
22645;DHT22;11489;50.834;6.752;2023-04-03T07:34:10;4.60;93.50
22645;DHT22;11489;50.834;6.752;2023-04-03T07:36:36;4.70;93.20
22645;DHT22;11489;50.834;6.752;2023-04-03T07:39:03;4.70;93.40
22645;DHT22;11489;50.834;6.752;2023-04-03T07:41:29;4.80;93.20
22645;DHT22;11489;50.834;6.752;2023-04-03T07:43:56;4.80;93.20
22645;DHT22;11489;50.834;6.752;2023-04-03T07:46:22;4.90;93.20
22645;DHT22;11489;50.834;6.752;2023-04-03T07:48:48;4.90;93.10
22645;DHT22;11489;50.834;6.752;2023-04-03T07:51:14;5.00;93.20
22645;DHT22;11489;50.834;6.752;2023-04-03T07:53:40;5.10;93.40
22645;DHT22;11489;50.834;6.752;2023-04-03T07:56:06;5.20;93.40
22645;DHT22;11489;50.834;6.752;2023-04-03T07:58:32;5.20;93.40
22645;DHT22;11489;50.834;6.752;2023-04-03T08:00:58;5.30;93.30
22645;DHT22;11489;50.834;6.752;2023-04-03T08:03:25;5.40;93.10
22645;DHT22;11489;50.834;6.752;2023-04-03T08:05:50;5.40;93.10
22645;DHT22;11489;50.834;6.752;2023-04-03T08:08:20;5.40;92.90
22645;DHT22;11489;50.834;6.752;2023-04-03T08:10:53;5.50;92.70
22645;DHT22;11489;50.834;6.752;2023-04-03T08:13:20;5.60;92.20
22645;DHT22;11489;50.834;6.752;2023-04-03T08:15:47;5.50;92.20
22645;DHT22;11489;50.834;6.752;2023-04-03T08:18:14;5.60;91.60
22645;DHT22;11489;50.834;6.752;2023-04-03T08:20:40;5.60;91.50
22645;DHT22;11489;50.834;6.752;2023-04-03T08:23:06;5.60;91.80
22645;DHT22;11489;50.834;6.752;2023-04-03T08:25:33;5.60;91.80
22645;DHT22;11489;50.834;6.752;2023-04-03T08:27:59;5.60;91.80
22645;DHT22;11489;50.834;6.752;2023-04-03T08:30:25;5.70;91.90
22645;DHT22;11489;50.834;6.752;2023-04-03T08:32:51;5.70;92.10
22645;DHT22;11489;50.834;6.752;2023-04-03T08:35:17;5.80;92.20
22645;DHT22;11489;50.834;6.752;2023-04-03T08:37:42;5.90;92.30
22645;DHT22;11489;50.834;6.752;2023-04-03T08:40:14;5.90;92.60
22645;DHT22;11489;50.834;6.752;2023-04-03T08:45:15;6.10;92.40
22645;DHT22;11489;50.834;6.752;2023-04-03T08:47:52;6.30;92.60
22645;DHT22;11489;50.834;6.752;2023-04-03T08:50:39;6.50;92.50
22645;DHT22;11489;50.834;6.752;2023-04-03T08:53:15;6.60;92.40
22645;DHT22;11489;50.834;6.752;2023-04-03T08:55:47;6.70;92.30
22645;DHT22;11489;50.834;6.752;2023-04-03T08:58:21;6.80;91.80
22645;DHT22;11489;50.834;6.752;2023-04-03T09:00:50;6.90;91.50
22645;DHT22;11489;50.834;6.752;2023-04-03T09:03:19;6.90;91.80
22645;DHT22;11489;50.834;6.752;2023-04-03T09:11:59;7.20;90.80
22645;DHT22;11489;50.834;6.752;2023-04-03T09:14:29;7.30;91.40
22645;DHT22;11489;50.834;6.752;2023-04-03T09:19:57;7.50;91.80
22645;DHT22;11489;50.834;6.752;2023-04-03T09:22:28;7.60;91.00
22645;DHT22;11489;50.834;6.752;2023-04-03T09:25:27;7.70;91.10
22645;DHT22;11489;50.834;6.752;2023-04-03T09:27:53;7.80;90.30
22645;DHT22;11489;50.834;6.752;2023-04-03T09:30:24;7.80;91.40
22645;DHT22;11489;50.834;6.752;2023-04-03T09:32:53;7.90;91.10
22645;DHT22;11489;50.834;6.752;2023-04-03T09:35:34;8.00;91.20
22645;DHT22;11489;50.834;6.752;2023-04-03T09:45:41;8.40;90.70
22645;DHT22;11489;50.834;6.752;2023-04-03T09:48:16;8.50;90.80
22645;DHT22;11489;50.834;6.752;2023-04-03T09:53:43;8.80;90.60
22645;DHT22;11489;50.834;6.752;2023-04-03T09:56:20;8.90;89.50
22645;DHT22;11489;50.834;6.752;2023-04-03T09:59:12;9.00;90.10
22645;DHT22;11489;50.834;6.752;2023-04-03T10:01:43;9.10;86.80
22645;DHT22;11489;50.834;6.752;2023-04-03T10:06:45;9.00;87.60
22645;DHT22;11489;50.834;6.752;2023-04-03T10:09:29;9.10;87.30
22645;DHT22;11489;50.834;6.752;2023-04-03T10:12:07;9.10;88.30
22645;DHT22;11489;50.834;6.752;2023-04-03T10:14:53;9.20;87.80
22645;DHT22;11489;50.834;6.752;2023-04-03T10:20:33;9.40;86.70
22645;DHT22;11489;50.834;6.752;2023-04-03T10:28:45;9.50;86.40
22645;DHT22;11489;50.834;6.752;2023-04-03T10:31:16;9.50;85.10
22645;DHT22;11489;50.834;6.752;2023-04-03T10:34:24;9.60;86.90
22645;DHT22;11489;50.834;6.752;2023-04-03T10:37:24;9.70;84.80
22645;DHT22;11489;50.834;6.752;2023-04-03T10:43:53;9.90;85.80
22645;DHT22;11489;50.834;6.752;2023-04-03T10:46:06;10.00;85.60
22645;DHT22;11489;50.834;6.752;2023-04-03T10:51:28;10.20;86.90
22645;DHT22;11489;50.834;6.752;2023-04-03T10:56:53;10.20;83.60
22645;DHT22;11489;50.834;6.752;2023-04-03T10:59:45;10.20;82.00
22645;DHT22;11489;50.834;6.752;2023-04-03T11:02:32;10.10;81.90
22645;DHT22;11489;50.834;6.752;2023-04-03T11:05:07;10.10;81.20
22645;DHT22;11489;50.834;6.752;2023-04-03T11:07:51;10.10;82.50
22645;DHT22;11489;50.834;6.752;2023-04-03T11:11:04;10.20;83.70
22645;DHT22;11489;50.834;6.752;2023-04-03T11:15:49;10.20;78.80
22645;DHT22;11489;50.834;6.752;2023-04-03T11:18:28;10.10;81.00
22645;DHT22;11489;50.834;6.752;2023-04-03T11:21:04;10.20;79.90
22645;DHT22;11489;50.834;6.752;2023-04-03T11:23:35;10.30;82.40
22645;DHT22;11489;50.834;6.752;2023-04-03T11:26:08;10.50;82.60
22645;DHT22;11489;50.834;6.752;2023-04-03T11:28:36;10.60;79.60
22645;DHT22;11489;50.834;6.752;2023-04-03T11:31:15;10.60;80.10
22645;DHT22;11489;50.834;6.752;2023-04-03T11:33:57;10.60;79.30
22645;DHT22;11489;50.834;6.752;2023-04-03T11:36:50;10.60;79.20
22645;DHT22;11489;50.834;6.752;2023-04-03T11:39:28;10.70;80.70
22645;DHT22;11489;50.834;6.752;2023-04-03T11:41:55;10.70;78.40
22645;DHT22;11489;50.834;6.752;2023-04-03T11:44:39;10.70;78.60
22645;DHT22;11489;50.834;6.752;2023-04-03T11:47:07;10.70;78.70
22645;DHT22;11489;50.834;6.752;2023-04-03T12:08:43;11.00;74.70
22645;DHT22;11489;50.834;6.752;2023-04-03T12:16:32;11.10;75.60
22645;DHT22;11489;50.834;6.752;2023-04-03T12:32:13;11.30;77.10
22645;DHT22;11489;50.834;6.752;2023-04-03T12:34:52;11.40;75.30
22645;DHT22;11489;50.834;6.752;2023-04-03T12:40:01;11.50;74.20
22645;DHT22;11489;50.834;6.752;2023-04-03T12:45:25;11.60;74.40
22645;DHT22;11489;50.834;6.752;2023-04-03T12:47:53;11.60;72.70
22645;DHT22;11489;50.834;6.752;2023-04-03T12:50:28;11.60;70.70
22645;DHT22;11489;50.834;6.752;2023-04-03T12:55:30;11.50;70.50
22645;DHT22;11489;50.834;6.752;2023-04-03T12:57:56;11.50;72.40
22645;DHT22;11489;50.834;6.752;2023-04-03T13:00:30;11.40;72.50
22645;DHT22;11489;50.834;6.752;2023-04-03T13:02:57;11.40;70.80
22645;DHT22;11489;50.834;6.752;2023-04-03T13:05:24;11.40;71.90
22645;DHT22;11489;50.834;6.752;2023-04-03T13:07:56;11.30;71.90
22645;DHT22;11489;50.834;6.752;2023-04-03T13:10:23;11.30;72.50
22645;DHT22;11489;50.834;6.752;2023-04-03T13:15:23;11.30;72.70
22645;DHT22;11489;50.834;6.752;2023-04-03T13:17:50;11.40;73.90
22645;DHT22;11489;50.834;6.752;2023-04-03T13:20:22;11.40;71.50
22645;DHT22;11489;50.834;6.752;2023-04-03T13:22:52;11.40;69.80
22645;DHT22;11489;50.834;6.752;2023-04-03T13:25:20;11.40;69.90
22645;DHT22;11489;50.834;6.752;2023-04-03T13:27:46;11.40;71.00
22645;DHT22;11489;50.834;6.752;2023-04-03T13:30:29;11.40;71.60
22645;DHT22;11489;50.834;6.752;2023-04-03T13:32:57;11.40;70.10
22645;DHT22;11489;50.834;6.752;2023-04-03T13:38:00;11.50;69.70
22645;DHT22;11489;50.834;6.752;2023-04-03T13:40:26;11.50;71.80
22645;DHT22;11489;50.834;6.752;2023-04-03T13:43:16;11.60;72.10
22645;DHT22;11489;50.834;6.752;2023-04-03T13:46:04;11.70;68.30
22645;DHT22;11489;50.834;6.752;2023-04-03T13:48:44;11.80;69.70
22645;DHT22;11489;50.834;6.752;2023-04-03T13:53:50;12.00;71.80
22645;DHT22;11489;50.834;6.752;2023-04-03T13:56:19;12.00;69.70
22645;DHT22;11489;50.834;6.752;2023-04-03T13:58:55;12.00;70.60
22645;DHT22;11489;50.834;6.752;2023-04-03T14:01:22;12.00;70.30
22645;DHT22;11489;50.834;6.752;2023-04-03T14:04:09;12.00;71.20
22645;DHT22;11489;50.834;6.752;2023-04-03T14:06:35;12.10;68.50
22645;DHT22;11489;50.834;6.752;2023-04-03T14:09:01;12.10;72.00
22645;DHT22;11489;50.834;6.752;2023-04-03T14:11:29;12.20;72.20
22645;DHT22;11489;50.834;6.752;2023-04-03T14:14:01;12.30;71.80
22645;DHT22;11489;50.834;6.752;2023-04-03T14:16:31;12.40;71.50
22645;DHT22;11489;50.834;6.752;2023-04-03T14:18:57;12.50;71.70
22645;DHT22;11489;50.834;6.752;2023-04-03T14:21:24;12.50;71.80
22645;DHT22;11489;50.834;6.752;2023-04-03T14:23:49;12.50;71.30
22645;DHT22;11489;50.834;6.752;2023-04-03T14:26:21;12.50;71.50
22645;DHT22;11489;50.834;6.752;2023-04-03T14:28:49;12.60;69.90
22645;DHT22;11489;50.834;6.752;2023-04-03T14:31:16;12.60;70.90
22645;DHT22;11489;50.834;6.752;2023-04-03T14:33:44;12.70;70.70
22645;DHT22;11489;50.834;6.752;2023-04-03T14:36:25;12.70;71.40
22645;DHT22;11489;50.834;6.752;2023-04-03T14:38:52;12.90;68.60
22645;DHT22;11489;50.834;6.752;2023-04-03T14:41:21;12.90;71.70
22645;DHT22;11489;50.834;6.752;2023-04-03T14:43:48;13.00;70.90
22645;DHT22;11489;50.834;6.752;2023-04-03T14:46:22;13.10;71.30
22645;DHT22;11489;50.834;6.752;2023-04-03T14:48:49;13.10;69.80
22645;DHT22;11489;50.834;6.752;2023-04-03T14:51:15;13.10;70.80
22645;DHT22;11489;50.834;6.752;2023-04-03T14:53:43;13.10;70.50
22645;DHT22;11489;50.834;6.752;2023-04-03T14:56:23;13.10;69.00
22645;DHT22;11489;50.834;6.752;2023-04-03T14:58:58;13.00;65.60
22645;DHT22;11489;50.834;6.752;2023-04-03T15:01:25;12.90;67.80
22645;DHT22;11489;50.834;6.752;2023-04-03T15:03:51;12.90;69.40
22645;DHT22;11489;50.834;6.752;2023-04-03T15:06:16;12.90;68.30
22645;DHT22;11489;50.834;6.752;2023-04-03T15:08:43;12.90;68.80
22645;DHT22;11489;50.834;6.752;2023-04-03T15:11:10;12.80;69.20
22645;DHT22;11489;50.834;6.752;2023-04-03T15:13:37;12.80;69.60
22645;DHT22;11489;50.834;6.752;2023-04-03T15:16:03;12.80;69.80
22645;DHT22;11489;50.834;6.752;2023-04-03T15:18:33;12.90;70.40
22645;DHT22;11489;50.834;6.752;2023-04-03T15:20:59;13.00;70.00
22645;DHT22;11489;50.834;6.752;2023-04-03T15:23:25;13.10;70.80
22645;DHT22;11489;50.834;6.752;2023-04-03T15:25:53;13.10;70.00
22645;DHT22;11489;50.834;6.752;2023-04-03T15:28:28;13.10;69.20
22645;DHT22;11489;50.834;6.752;2023-04-03T15:30:55;13.10;68.60
22645;DHT22;11489;50.834;6.752;2023-04-03T15:33:21;13.10;67.90
22645;DHT22;11489;50.834;6.752;2023-04-03T15:35:47;13.00;67.30
22645;DHT22;11489;50.834;6.752;2023-04-03T15:38:12;13.00;67.00
22645;DHT22;11489;50.834;6.752;2023-04-03T15:40:38;12.90;67.30
22645;DHT22;11489;50.834;6.752;2023-04-03T15:43:05;12.90;66.70
22645;DHT22;11489;50.834;6.752;2023-04-03T15:45:32;12.80;66.50
22645;DHT22;11489;50.834;6.752;2023-04-03T15:47:58;12.80;66.30
22645;DHT22;11489;50.834;6.752;2023-04-03T15:50:24;12.80;66.60
22645;DHT22;11489;50.834;6.752;2023-04-03T15:52:51;12.70;65.70
22645;DHT22;11489;50.834;6.752;2023-04-03T15:55:27;12.60;65.50
22645;DHT22;11489;50.834;6.752;2023-04-03T15:57:53;12.50;65.10
22645;DHT22;11489;50.834;6.752;2023-04-03T16:00:20;12.40;66.40
22645;DHT22;11489;50.834;6.752;2023-04-03T16:02:47;12.40;66.60
22645;DHT22;11489;50.834;6.752;2023-04-03T16:05:14;12.40;66.80
22645;DHT22;11489;50.834;6.752;2023-04-03T16:07:41;12.30;66.50
22645;DHT22;11489;50.834;6.752;2023-04-03T16:10:09;12.30;67.20
22645;DHT22;11489;50.834;6.752;2023-04-03T16:12:35;12.30;66.50
22645;DHT22;11489;50.834;6.752;2023-04-03T16:15:02;12.20;66.50
22645;DHT22;11489;50.834;6.752;2023-04-03T16:17:27;12.20;66.20
22645;DHT22;11489;50.834;6.752;2023-04-03T16:19:54;12.10;66.40
22645;DHT22;11489;50.834;6.752;2023-04-03T16:22:21;12.10;66.30
22645;DHT22;11489;50.834;6.752;2023-04-03T16:24:48;12.00;66.40
22645;DHT22;11489;50.834;6.752;2023-04-03T16:27:15;12.00;66.60
22645;DHT22;11489;50.834;6.752;2023-04-03T16:29:41;12.00;66.60
22645;DHT22;11489;50.834;6.752;2023-04-03T16:32:06;12.00;67.20
22645;DHT22;11489;50.834;6.752;2023-04-03T16:34:32;12.00;67.00
22645;DHT22;11489;50.834;6.752;2023-04-03T16:36:59;11.90;66.00
22645;DHT22;11489;50.834;6.752;2023-04-03T16:39:25;11.80;65.80
22645;DHT22;11489;50.834;6.752;2023-04-03T16:41:50;11.70;65.90
22645;DHT22;11489;50.834;6.752;2023-04-03T16:44:16;11.70;67.00
22645;DHT22;11489;50.834;6.752;2023-04-03T16:46:42;11.60;66.30
22645;DHT22;11489;50.834;6.752;2023-04-03T16:49:08;11.60;66.40
22645;DHT22;11489;50.834;6.752;2023-04-03T16:51:33;11.50;66.20
22645;DHT22;11489;50.834;6.752;2023-04-03T16:53:59;11.50;66.20
22645;DHT22;11489;50.834;6.752;2023-04-03T16:56:25;11.40;66.00
22645;DHT22;11489;50.834;6.752;2023-04-03T16:58:53;11.30;66.30
22645;DHT22;11489;50.834;6.752;2023-04-03T17:01:21;11.20;65.40
22645;DHT22;11489;50.834;6.752;2023-04-03T17:03:47;11.10;65.00
22645;DHT22;11489;50.834;6.752;2023-04-03T17:06:18;10.90;65.10
22645;DHT22;11489;50.834;6.752;2023-04-03T17:08:45;10.80;65.10
22645;DHT22;11489;50.834;6.752;2023-04-03T17:11:12;10.70;64.20
22645;DHT22;11489;50.834;6.752;2023-04-03T17:13:37;10.60;64.40
22645;DHT22;11489;50.834;6.752;2023-04-03T17:16:06;10.50;64.60
22645;DHT22;11489;50.834;6.752;2023-04-03T17:18:33;10.30;64.50
22645;DHT22;11489;50.834;6.752;2023-04-03T17:20:59;10.20;65.10
22645;DHT22;11489;50.834;6.752;2023-04-03T17:23:26;10.10;65.20
22645;DHT22;11489;50.834;6.752;2023-04-03T17:25:54;10.00;65.00
22645;DHT22;11489;50.834;6.752;2023-04-03T17:28:21;9.90;65.60
22645;DHT22;11489;50.834;6.752;2023-04-03T17:30:57;9.80;65.80
22645;DHT22;11489;50.834;6.752;2023-04-03T17:33:24;9.70;65.20
22645;DHT22;11489;50.834;6.752;2023-04-03T17:35:51;9.60;66.20